sensor_id;sensor_type;location;lat;lon;timestamp;P1;durP1;ratioP1;P2;durP2;ratioP2
1585;SDS011;786;48.718;9.514;2022-12-29T00:01:46;15.07;;;13.50;;
1585;SDS011;786;48.718;9.514;2022-12-29T00:04:13;14.75;;;11.48;;
1585;SDS011;786;48.718;9.514;2022-12-29T00:06:41;16.02;;;11.77;;
1585;SDS011;786;48.718;9.514;2022-12-29T00:09:07;23.02;;;16.52;;
1585;SDS011;786;48.718;9.514;2022-12-29T00:11:34;21.00;;;14.63;;
1585;SDS011;786;48.718;9.514;2022-12-29T00:14:02;23.60;;;15.77;;
1585;SDS011;786;48.718;9.514;2022-12-29T00:16:46;24.88;;;19.10;;
1585;SDS011;786;48.718;9.514;2022-12-29T00:19:12;22.13;;;16.00;;
1585;SDS011;786;48.718;9.514;2022-12-29T00:21:52;22.00;;;14.38;;
1585;SDS011;786;48.718;9.514;2022-12-29T00:24:36;13.30;;;11.18;;
1585;SDS011;786;48.718;9.514;2022-12-29T00:30:07;12.57;;;10.52;;
1585;SDS011;786;48.718;9.514;2022-12-29T00:32:52;16.73;;;13.65;;
1585;SDS011;786;48.718;9.514;2022-12-29T00:35:37;19.48;;;15.32;;
1585;SDS011;786;48.718;9.514;2022-12-29T00:38:05;9.57;;;8.40;;
1585;SDS011;786;48.718;9.514;2022-12-29T00:40:51;15.07;;;10.77;;
1585;SDS011;786;48.718;9.514;2022-12-29T00:43:35;12.88;;;11.10;;
1585;SDS011;786;48.718;9.514;2022-12-29T00:46:20;19.17;;;14.93;;
1585;SDS011;786;48.718;9.514;2022-12-29T00:48:47;29.50;;;20.88;;
1585;SDS011;786;48.718;9.514;2022-12-29T00:51:33;24.98;;;16.35;;
1585;SDS011;786;48.718;9.514;2022-12-29T00:53:59;25.30;;;19.08;;
1585;SDS011;786;48.718;9.514;2022-12-29T00:56:26;22.38;;;17.20;;
1585;SDS011;786;48.718;9.514;2022-12-29T00:58:52;16.35;;;13.95;;
1585;SDS011;786;48.718;9.514;2022-12-29T01:01:19;18.17;;;15.82;;
1585;SDS011;786;48.718;9.514;2022-12-29T01:03:46;20.40;;;14.93;;
1585;SDS011;786;48.718;9.514;2022-12-29T01:06:13;18.27;;;15.45;;
1585;SDS011;786;48.718;9.514;2022-12-29T01:08:40;18.40;;;14.50;;
1585;SDS011;786;48.718;9.514;2022-12-29T01:11:07;10.68;;;9.75;;
1585;SDS011;786;48.718;9.514;2022-12-29T01:13:33;11.73;;;10.52;;
1585;SDS011;786;48.718;9.514;2022-12-29T01:16:00;13.20;;;11.80;;
1585;SDS011;786;48.718;9.514;2022-12-29T01:18:28;17.23;;;13.50;;
1585;SDS011;786;48.718;9.514;2022-12-29T01:20:58;15.50;;;12.45;;
1585;SDS011;786;48.718;9.514;2022-12-29T01:23:25;14.05;;;12.23;;
1585;SDS011;786;48.718;9.514;2022-12-29T01:25:51;17.10;;;15.02;;
1585;SDS011;786;48.718;9.514;2022-12-29T01:28:18;14.95;;;12.45;;
1585;SDS011;786;48.718;9.514;2022-12-29T01:30:44;12.93;;;11.27;;
1585;SDS011;786;48.718;9.514;2022-12-29T01:33:10;10.50;;;8.80;;
1585;SDS011;786;48.718;9.514;2022-12-29T01:35:38;8.52;;;7.55;;
1585;SDS011;786;48.718;9.514;2022-12-29T01:38:05;9.48;;;7.72;;
1585;SDS011;786;48.718;9.514;2022-12-29T01:40:32;9.40;;;8.45;;
1585;SDS011;786;48.718;9.514;2022-12-29T01:42:59;10.95;;;9.95;;
1585;SDS011;786;48.718;9.514;2022-12-29T01:45:25;10.85;;;9.70;;
1585;SDS011;786;48.718;9.514;2022-12-29T01:47:53;9.98;;;8.43;;
1585;SDS011;786;48.718;9.514;2022-12-29T01:50:22;9.65;;;8.65;;
1585;SDS011;786;48.718;9.514;2022-12-29T01:52:54;10.80;;;9.77;;
1585;SDS011;786;48.718;9.514;2022-12-29T01:55:23;11.25;;;9.30;;
1585;SDS011;786;48.718;9.514;2022-12-29T01:57:50;9.40;;;8.18;;
1585;SDS011;786;48.718;9.514;2022-12-29T02:00:18;11.65;;;10.45;;
1585;SDS011;786;48.718;9.514;2022-12-29T02:02:45;11.50;;;9.40;;
1585;SDS011;786;48.718;9.514;2022-12-29T02:05:14;11.77;;;10.57;;
1585;SDS011;786;48.718;9.514;2022-12-29T02:07:43;12.20;;;11.00;;
1585;SDS011;786;48.718;9.514;2022-12-29T02:10:12;12.77;;;10.98;;
1585;SDS011;786;48.718;9.514;2022-12-29T02:12:38;9.65;;;8.70;;
1585;SDS011;786;48.718;9.514;2022-12-29T02:15:05;11.05;;;9.27;;
1585;SDS011;786;48.718;9.514;2022-12-29T02:17:41;11.85;;;10.35;;
1585;SDS011;786;48.718;9.514;2022-12-29T02:23:23;11.30;;;10.10;;
1585;SDS011;786;48.718;9.514;2022-12-29T02:26:29;10.65;;;9.65;;
1585;SDS011;786;48.718;9.514;2022-12-29T02:29:07;12.18;;;9.93;;
1585;SDS011;786;48.718;9.514;2022-12-29T02:31:57;8.55;;;7.85;;
1585;SDS011;786;48.718;9.514;2022-12-29T02:34:26;9.35;;;8.05;;
1585;SDS011;786;48.718;9.514;2022-12-29T02:37:00;10.23;;;9.18;;
1585;SDS011;786;48.718;9.514;2022-12-29T02:39:32;9.95;;;8.85;;
1585;SDS011;786;48.718;9.514;2022-12-29T02:42:03;8.63;;;7.82;;
1585;SDS011;786;48.718;9.514;2022-12-29T02:44:34;9.90;;;7.78;;
1585;SDS011;786;48.718;9.514;2022-12-29T02:47:08;9.23;;;8.30;;
1585;SDS011;786;48.718;9.514;2022-12-29T02:49:39;8.35;;;7.32;;
1585;SDS011;786;48.718;9.514;2022-12-29T02:52:11;8.52;;;7.78;;
1585;SDS011;786;48.718;9.514;2022-12-29T02:54:40;9.23;;;8.35;;
1585;SDS011;786;48.718;9.514;2022-12-29T02:57:08;8.77;;;8.02;;
1585;SDS011;786;48.718;9.514;2022-12-29T02:59:38;7.40;;;6.70;;
1585;SDS011;786;48.718;9.514;2022-12-29T03:02:11;10.10;;;9.10;;
1585;SDS011;786;48.718;9.514;2022-12-29T03:04:51;9.35;;;8.45;;
1585;SDS011;786;48.718;9.514;2022-12-29T03:07:27;8.05;;;7.20;;
1585;SDS011;786;48.718;9.514;2022-12-29T03:09:59;7.22;;;6.60;;
1585;SDS011;786;48.718;9.514;2022-12-29T03:12:29;8.02;;;7.32;;
1585;SDS011;786;48.718;9.514;2022-12-29T03:15:15;6.22;;;5.68;;
1585;SDS011;786;48.718;9.514;2022-12-29T03:18:05;7.18;;;6.03;;
1585;SDS011;786;48.718;9.514;2022-12-29T03:20:35;7.25;;;6.65;;
1585;SDS011;786;48.718;9.514;2022-12-29T03:23:05;8.20;;;7.40;;
1585;SDS011;786;48.718;9.514;2022-12-29T03:25:33;8.15;;;7.47;;
1585;SDS011;786;48.718;9.514;2022-12-29T03:28:02;6.32;;;5.82;;
1585;SDS011;786;48.718;9.514;2022-12-29T03:30:31;6.43;;;5.82;;
1585;SDS011;786;48.718;9.514;2022-12-29T03:32:59;6.70;;;6.10;;
1585;SDS011;786;48.718;9.514;2022-12-29T03:35:28;6.45;;;5.95;;
1585;SDS011;786;48.718;9.514;2022-12-29T03:37:58;6.07;;;5.57;;
1585;SDS011;786;48.718;9.514;2022-12-29T03:40:26;5.78;;;5.15;;
1585;SDS011;786;48.718;9.514;2022-12-29T03:42:53;7.07;;;6.38;;
1585;SDS011;786;48.718;9.514;2022-12-29T03:45:20;6.60;;;6.00;;
1585;SDS011;786;48.718;9.514;2022-12-29T03:47:47;6.88;;;6.13;;
1585;SDS011;786;48.718;9.514;2022-12-29T03:50:13;7.53;;;6.90;;
1585;SDS011;786;48.718;9.514;2022-12-29T03:52:41;7.35;;;6.63;;
1585;SDS011;786;48.718;9.514;2022-12-29T03:55:08;7.72;;;7.03;;
1585;SDS011;786;48.718;9.514;2022-12-29T03:57:34;8.75;;;7.25;;
1585;SDS011;786;48.718;9.514;2022-12-29T04:00:01;7.65;;;6.95;;
1585;SDS011;786;48.718;9.514;2022-12-29T04:02:28;7.35;;;6.75;;
1585;SDS011;786;48.718;9.514;2022-12-29T04:04:55;7.15;;;6.28;;
1585;SDS011;786;48.718;9.514;2022-12-29T04:07:21;6.53;;;6.03;;
1585;SDS011;786;48.718;9.514;2022-12-29T04:09:49;7.40;;;6.82;;
1585;SDS011;786;48.718;9.514;2022-12-29T04:12:15;7.07;;;6.55;;
1585;SDS011;786;48.718;9.514;2022-12-29T04:17:18;9.45;;;8.55;;
1585;SDS011;786;48.718;9.514;2022-12-29T04:19:45;8.73;;;7.93;;
1585;SDS011;786;48.718;9.514;2022-12-29T04:22:11;8.52;;;7.07;;
1585;SDS011;786;48.718;9.514;2022-12-29T04:24:38;7.63;;;6.68;;
1585;SDS011;786;48.718;9.514;2022-12-29T04:27:05;8.27;;;7.50;;
1585;SDS011;786;48.718;9.514;2022-12-29T04:29:32;5.60;;;4.68;;
1585;SDS011;786;48.718;9.514;2022-12-29T04:31:58;7.72;;;6.97;;
1585;SDS011;786;48.718;9.514;2022-12-29T04:34:24;5.10;;;4.60;;
1585;SDS011;786;48.718;9.514;2022-12-29T04:36:51;10.70;;;9.70;;
1585;SDS011;786;48.718;9.514;2022-12-29T04:39:17;6.15;;;4.90;;
1585;SDS011;786;48.718;9.514;2022-12-29T04:41:43;7.13;;;5.55;;
1585;SDS011;786;48.718;9.514;2022-12-29T04:44:12;7.15;;;6.50;;
1585;SDS011;786;48.718;9.514;2022-12-29T04:46:39;11.63;;;6.03;;
1585;SDS011;786;48.718;9.514;2022-12-29T04:49:05;8.77;;;7.97;;
1585;SDS011;786;48.718;9.514;2022-12-29T04:51:33;5.95;;;5.13;;
1585;SDS011;786;48.718;9.514;2022-12-29T04:54:00;11.43;;;9.73;;
1585;SDS011;786;48.718;9.514;2022-12-29T04:56:26;4.88;;;4.38;;
1585;SDS011;786;48.718;9.514;2022-12-29T04:58:53;5.53;;;4.20;;
1585;SDS011;786;48.718;9.514;2022-12-29T05:01:20;6.28;;;5.68;;
1585;SDS011;786;48.718;9.514;2022-12-29T05:03:47;6.43;;;5.47;;
1585;SDS011;786;48.718;9.514;2022-12-29T05:06:15;7.35;;;6.65;;
1585;SDS011;786;48.718;9.514;2022-12-29T05:08:42;7.72;;;6.82;;
1585;SDS011;786;48.718;9.514;2022-12-29T05:11:08;7.43;;;6.72;;
1585;SDS011;786;48.718;9.514;2022-12-29T05:13:34;8.43;;;6.82;;
1585;SDS011;786;48.718;9.514;2022-12-29T05:16:01;8.65;;;7.75;;
1585;SDS011;786;48.718;9.514;2022-12-29T05:18:29;7.97;;;5.75;;
1585;SDS011;786;48.718;9.514;2022-12-29T05:20:55;6.63;;;5.97;;
1585;SDS011;786;48.718;9.514;2022-12-29T05:23:21;6.68;;;5.97;;
1585;SDS011;786;48.718;9.514;2022-12-29T05:25:48;4.85;;;3.95;;
1585;SDS011;786;48.718;9.514;2022-12-29T05:28:14;5.70;;;5.20;;
1585;SDS011;786;48.718;9.514;2022-12-29T05:30:40;6.25;;;5.63;;
1585;SDS011;786;48.718;9.514;2022-12-29T05:33:07;6.65;;;5.97;;
1585;SDS011;786;48.718;9.514;2022-12-29T05:35:37;6.35;;;5.60;;
1585;SDS011;786;48.718;9.514;2022-12-29T05:38:04;7.40;;;6.70;;
1585;SDS011;786;48.718;9.514;2022-12-29T05:40:30;6.10;;;5.47;;
1585;SDS011;786;48.718;9.514;2022-12-29T05:42:56;5.95;;;5.47;;
1585;SDS011;786;48.718;9.514;2022-12-29T05:45:23;6.43;;;5.88;;
1585;SDS011;786;48.718;9.514;2022-12-29T05:47:49;5.65;;;4.85;;
1585;SDS011;786;48.718;9.514;2022-12-29T05:50:16;8.50;;;7.78;;
1585;SDS011;786;48.718;9.514;2022-12-29T05:52:43;7.15;;;6.50;;
1585;SDS011;786;48.718;9.514;2022-12-29T05:55:10;8.23;;;7.35;;
1585;SDS011;786;48.718;9.514;2022-12-29T05:57:36;10.13;;;9.05;;
1585;SDS011;786;48.718;9.514;2022-12-29T06:00:03;7.85;;;7.13;;
1585;SDS011;786;48.718;9.514;2022-12-29T06:02:30;8.85;;;8.02;;
1585;SDS011;786;48.718;9.514;2022-12-29T06:04:56;6.78;;;6.18;;
1585;SDS011;786;48.718;9.514;2022-12-29T06:07:22;8.00;;;7.22;;
1585;SDS011;786;48.718;9.514;2022-12-29T06:09:50;8.55;;;6.18;;
1585;SDS011;786;48.718;9.514;2022-12-29T06:12:16;5.30;;;4.63;;
1585;SDS011;786;48.718;9.514;2022-12-29T06:14:43;7.00;;;6.35;;
1585;SDS011;786;48.718;9.514;2022-12-29T06:17:09;7.18;;;6.47;;
1585;SDS011;786;48.718;9.514;2022-12-29T06:19:36;14.35;;;13.05;;
1585;SDS011;786;48.718;9.514;2022-12-29T06:22:02;9.75;;;8.40;;
1585;SDS011;786;48.718;9.514;2022-12-29T06:24:28;7.50;;;6.80;;
1585;SDS011;786;48.718;9.514;2022-12-29T06:26:56;12.15;;;11.10;;
1585;SDS011;786;48.718;9.514;2022-12-29T06:29:22;8.10;;;7.28;;
1585;SDS011;786;48.718;9.514;2022-12-29T06:31:49;7.28;;;6.60;;
1585;SDS011;786;48.718;9.514;2022-12-29T06:34:16;7.93;;;7.03;;
1585;SDS011;786;48.718;9.514;2022-12-29T06:36:42;6.22;;;5.35;;
1585;SDS011;786;48.718;9.514;2022-12-29T06:39:09;7.40;;;6.65;;
1585;SDS011;786;48.718;9.514;2022-12-29T06:41:36;6.88;;;6.25;;
1585;SDS011;786;48.718;9.514;2022-12-29T06:44:04;8.40;;;7.60;;
1585;SDS011;786;48.718;9.514;2022-12-29T06:46:30;7.28;;;5.70;;
1585;SDS011;786;48.718;9.514;2022-12-29T06:48:56;11.13;;;10.00;;
1585;SDS011;786;48.718;9.514;2022-12-29T06:51:23;12.32;;;11.02;;
1585;SDS011;786;48.718;9.514;2022-12-29T06:53:49;11.73;;;10.52;;
1585;SDS011;786;48.718;9.514;2022-12-29T06:56:15;9.15;;;8.18;;
1585;SDS011;786;48.718;9.514;2022-12-29T06:58:42;9.88;;;8.82;;
1585;SDS011;786;48.718;9.514;2022-12-29T07:01:09;10.90;;;9.10;;
1585;SDS011;786;48.718;9.514;2022-12-29T07:03:36;8.18;;;6.93;;
1585;SDS011;786;48.718;9.514;2022-12-29T07:06:02;9.20;;;8.40;;
1585;SDS011;786;48.718;9.514;2022-12-29T07:08:29;7.75;;;6.28;;
1585;SDS011;786;48.718;9.514;2022-12-29T07:10:55;9.30;;;8.45;;
1585;SDS011;786;48.718;9.514;2022-12-29T07:13:22;12.43;;;8.90;;
1585;SDS011;786;48.718;9.514;2022-12-29T07:15:48;8.70;;;7.90;;
1585;SDS011;786;48.718;9.514;2022-12-29T07:18:16;7.43;;;6.72;;
1585;SDS011;786;48.718;9.514;2022-12-29T07:20:42;7.13;;;5.55;;
1585;SDS011;786;48.718;9.514;2022-12-29T07:23:09;13.32;;;12.13;;
1585;SDS011;786;48.718;9.514;2022-12-29T07:25:35;11.60;;;10.45;;
1585;SDS011;786;48.718;9.514;2022-12-29T07:28:01;9.75;;;8.82;;
1585;SDS011;786;48.718;9.514;2022-12-29T07:30:28;8.57;;;7.72;;
1585;SDS011;786;48.718;9.514;2022-12-29T07:32:54;9.70;;;8.13;;
1585;SDS011;786;48.718;9.514;2022-12-29T07:35:22;9.18;;;6.65;;
1585;SDS011;786;48.718;9.514;2022-12-29T07:37:48;8.25;;;7.45;;
1585;SDS011;786;48.718;9.514;2022-12-29T07:40:15;8.52;;;7.75;;
1585;SDS011;786;48.718;9.514;2022-12-29T07:42:41;6.72;;;6.00;;
1585;SDS011;786;48.718;9.514;2022-12-29T07:45:08;10.95;;;9.25;;
1585;SDS011;786;48.718;9.514;2022-12-29T07:47:35;11.05;;;10.05;;
1585;SDS011;786;48.718;9.514;2022-12-29T07:50:01;8.95;;;8.15;;
1585;SDS011;786;48.718;9.514;2022-12-29T07:52:29;15.90;;;11.20;;
1585;SDS011;786;48.718;9.514;2022-12-29T07:54:56;9.73;;;8.88;;
1585;SDS011;786;48.718;9.514;2022-12-29T07:57:22;10.48;;;9.50;;
1585;SDS011;786;48.718;9.514;2022-12-29T07:59:49;7.88;;;7.07;;
1585;SDS011;786;48.718;9.514;2022-12-29T08:02:15;8.10;;;7.30;;
1585;SDS011;786;48.718;9.514;2022-12-29T08:04:41;9.80;;;7.78;;
1585;SDS011;786;48.718;9.514;2022-12-29T08:07:08;9.13;;;8.23;;
1585;SDS011;786;48.718;9.514;2022-12-29T08:09:35;7.38;;;6.50;;
1585;SDS011;786;48.718;9.514;2022-12-29T08:12:02;9.30;;;8.40;;
1585;SDS011;786;48.718;9.514;2022-12-29T08:14:28;10.45;;;9.27;;
1585;SDS011;786;48.718;9.514;2022-12-29T08:16:55;13.70;;;12.25;;
1585;SDS011;786;48.718;9.514;2022-12-29T08:19:21;8.38;;;7.43;;
1585;SDS011;786;48.718;9.514;2022-12-29T08:21:48;10.48;;;8.55;;
1585;SDS011;786;48.718;9.514;2022-12-29T08:24:14;8.45;;;7.65;;
1585;SDS011;786;48.718;9.514;2022-12-29T08:26:42;6.63;;;6.03;;
1585;SDS011;786;48.718;9.514;2022-12-29T08:29:08;7.93;;;7.22;;
1585;SDS011;786;48.718;9.514;2022-12-29T08:31:34;5.78;;;5.30;;
1585;SDS011;786;48.718;9.514;2022-12-29T08:34:01;6.20;;;5.63;;
1585;SDS011;786;48.718;9.514;2022-12-29T08:36:28;5.53;;;5.03;;
1585;SDS011;786;48.718;9.514;2022-12-29T08:38:54;4.40;;;4.03;;
1585;SDS011;786;48.718;9.514;2022-12-29T08:41:21;4.88;;;3.97;;
1585;SDS011;786;48.718;9.514;2022-12-29T08:43:49;5.28;;;4.88;;
1585;SDS011;786;48.718;9.514;2022-12-29T08:46:16;8.05;;;7.13;;
1585;SDS011;786;48.718;9.514;2022-12-29T08:48:42;11.32;;;7.18;;
1585;SDS011;786;48.718;9.514;2022-12-29T08:51:09;6.20;;;5.57;;
1585;SDS011;786;48.718;9.514;2022-12-29T08:53:35;8.35;;;6.72;;
1585;SDS011;786;48.718;9.514;2022-12-29T08:56:02;7.70;;;6.63;;
1585;SDS011;786;48.718;9.514;2022-12-29T08:58:29;8.23;;;6.82;;
1585;SDS011;786;48.718;9.514;2022-12-29T09:00:57;10.60;;;7.18;;
1585;SDS011;786;48.718;9.514;2022-12-29T09:03:24;6.82;;;5.85;;
1585;SDS011;786;48.718;9.514;2022-12-29T09:05:51;6.55;;;5.95;;
1585;SDS011;786;48.718;9.514;2022-12-29T09:08:19;5.40;;;4.18;;
1585;SDS011;786;48.718;9.514;2022-12-29T09:10:45;4.38;;;3.80;;
1585;SDS011;786;48.718;9.514;2022-12-29T09:13:12;5.32;;;4.25;;
1585;SDS011;786;48.718;9.514;2022-12-29T09:15:39;4.70;;;4.30;;
1585;SDS011;786;48.718;9.514;2022-12-29T09:18:07;6.65;;;5.32;;
1585;SDS011;786;48.718;9.514;2022-12-29T09:20:34;5.88;;;5.13;;
1585;SDS011;786;48.718;9.514;2022-12-29T09:23:01;4.57;;;4.18;;
1585;SDS011;786;48.718;9.514;2022-12-29T09:25:28;5.32;;;4.82;;
1585;SDS011;786;48.718;9.514;2022-12-29T09:27:54;4.30;;;4.00;;
1585;SDS011;786;48.718;9.514;2022-12-29T09:30:21;5.25;;;4.75;;
1585;SDS011;786;48.718;9.514;2022-12-29T09:32:48;4.20;;;3.80;;
1585;SDS011;786;48.718;9.514;2022-12-29T09:35:16;6.07;;;4.53;;
1585;SDS011;786;48.718;9.514;2022-12-29T09:37:43;4.72;;;4.28;;
1585;SDS011;786;48.718;9.514;2022-12-29T09:40:15;5.57;;;4.70;;
1585;SDS011;786;48.718;9.514;2022-12-29T09:42:50;4.78;;;3.63;;
1585;SDS011;786;48.718;9.514;2022-12-29T09:45:23;5.45;;;4.45;;
1585;SDS011;786;48.718;9.514;2022-12-29T09:47:54;4.70;;;4.20;;
1585;SDS011;786;48.718;9.514;2022-12-29T09:50:22;5.57;;;4.90;;
1585;SDS011;786;48.718;9.514;2022-12-29T09:52:51;5.30;;;4.80;;
1585;SDS011;786;48.718;9.514;2022-12-29T09:55:19;6.40;;;5.80;;
1585;SDS011;786;48.718;9.514;2022-12-29T09:57:48;4.63;;;4.22;;
1585;SDS011;786;48.718;9.514;2022-12-29T10:00:16;5.53;;;5.03;;
1585;SDS011;786;48.718;9.514;2022-12-29T10:02:45;6.25;;;5.65;;
1585;SDS011;786;48.718;9.514;2022-12-29T10:05:18;6.45;;;5.40;;
1585;SDS011;786;48.718;9.514;2022-12-29T10:07:50;5.00;;;4.57;;
1585;SDS011;786;48.718;9.514;2022-12-29T10:10:22;5.47;;;5.00;;
1585;SDS011;786;48.718;9.514;2022-12-29T10:12:58;5.57;;;5.07;;
1585;SDS011;786;48.718;9.514;2022-12-29T10:15:38;5.50;;;4.93;;
1585;SDS011;786;48.718;9.514;2022-12-29T10:18:12;5.40;;;5.00;;
1585;SDS011;786;48.718;9.514;2022-12-29T10:20:47;5.22;;;4.15;;
1585;SDS011;786;48.718;9.514;2022-12-29T10:23:22;4.50;;;3.92;;
1585;SDS011;786;48.718;9.514;2022-12-29T10:25:52;7.75;;;5.57;;
1585;SDS011;786;48.718;9.514;2022-12-29T10:28:21;5.38;;;4.85;;
1585;SDS011;786;48.718;9.514;2022-12-29T10:30:49;5.00;;;4.53;;
1585;SDS011;786;48.718;9.514;2022-12-29T10:33:18;5.90;;;5.07;;
1585;SDS011;786;48.718;9.514;2022-12-29T10:35:47;6.05;;;5.45;;
1585;SDS011;786;48.718;9.514;2022-12-29T10:38:15;6.65;;;6.05;;
1585;SDS011;786;48.718;9.514;2022-12-29T10:40:46;6.10;;;5.50;;
1585;SDS011;786;48.718;9.514;2022-12-29T10:43:22;6.18;;;5.68;;
1585;SDS011;786;48.718;9.514;2022-12-29T10:45:51;9.45;;;6.18;;
1585;SDS011;786;48.718;9.514;2022-12-29T10:48:19;6.30;;;5.78;;
1585;SDS011;786;48.718;9.514;2022-12-29T10:50:48;6.65;;;5.75;;
1585;SDS011;786;48.718;9.514;2022-12-29T10:53:16;7.07;;;5.78;;
1585;SDS011;786;48.718;9.514;2022-12-29T10:55:45;6.15;;;5.55;;
1585;SDS011;786;48.718;9.514;2022-12-29T10:58:12;6.25;;;5.65;;
1585;SDS011;786;48.718;9.514;2022-12-29T11:00:39;6.18;;;4.68;;
1585;SDS011;786;48.718;9.514;2022-12-29T11:03:10;7.85;;;6.63;;
1585;SDS011;786;48.718;9.514;2022-12-29T11:05:44;8.60;;;7.07;;
1585;SDS011;786;48.718;9.514;2022-12-29T11:08:14;8.93;;;7.38;;
1585;SDS011;786;48.718;9.514;2022-12-29T11:10:43;7.80;;;6.78;;
1585;SDS011;786;48.718;9.514;2022-12-29T11:13:11;7.10;;;5.38;;
1585;SDS011;786;48.718;9.514;2022-12-29T11:15:39;8.90;;;6.57;;
1585;SDS011;786;48.718;9.514;2022-12-29T11:18:16;7.78;;;6.97;;
1585;SDS011;786;48.718;9.514;2022-12-29T11:20:44;7.68;;;6.90;;
1585;SDS011;786;48.718;9.514;2022-12-29T11:23:22;7.40;;;6.13;;
1585;SDS011;786;48.718;9.514;2022-12-29T11:26:16;7.25;;;6.38;;
1585;SDS011;786;48.718;9.514;2022-12-29T11:28:46;6.78;;;5.07;;
1585;SDS011;786;48.718;9.514;2022-12-29T11:31:15;6.15;;;5.10;;
1585;SDS011;786;48.718;9.514;2022-12-29T11:33:43;6.00;;;5.40;;
1585;SDS011;786;48.718;9.514;2022-12-29T11:36:11;7.55;;;4.93;;
1585;SDS011;786;48.718;9.514;2022-12-29T11:38:40;7.38;;;6.68;;
1585;SDS011;786;48.718;9.514;2022-12-29T11:41:10;7.15;;;6.45;;
1585;SDS011;786;48.718;9.514;2022-12-29T11:43:38;5.38;;;4.43;;
1585;SDS011;786;48.718;9.514;2022-12-29T11:46:07;6.85;;;5.60;;
1585;SDS011;786;48.718;9.514;2022-12-29T11:48:40;5.80;;;5.20;;
1585;SDS011;786;48.718;9.514;2022-12-29T11:51:07;7.30;;;6.43;;
1585;SDS011;786;48.718;9.514;2022-12-29T11:53:37;5.97;;;5.28;;
1585;SDS011;786;48.718;9.514;2022-12-29T11:56:07;7.22;;;4.80;;
1585;SDS011;786;48.718;9.514;2022-12-29T11:58:35;6.32;;;5.53;;
1585;SDS011;786;48.718;9.514;2022-12-29T12:01:03;6.32;;;5.28;;
1585;SDS011;786;48.718;9.514;2022-12-29T12:03:32;5.97;;;5.32;;
1585;SDS011;786;48.718;9.514;2022-12-29T12:06:00;8.95;;;7.93;;
1585;SDS011;786;48.718;9.514;2022-12-29T12:08:30;8.43;;;7.53;;
1585;SDS011;786;48.718;9.514;2022-12-29T12:11:03;8.05;;;6.57;;
1585;SDS011;786;48.718;9.514;2022-12-29T12:13:33;6.53;;;5.88;;
1585;SDS011;786;48.718;9.514;2022-12-29T12:16:02;6.75;;;6.05;;
1585;SDS011;786;48.718;9.514;2022-12-29T12:18:32;5.68;;;5.03;;
1585;SDS011;786;48.718;9.514;2022-12-29T12:21:08;6.80;;;6.10;;
1585;SDS011;786;48.718;9.514;2022-12-29T12:23:43;7.25;;;6.45;;
1585;SDS011;786;48.718;9.514;2022-12-29T12:26:14;6.80;;;6.10;;
1585;SDS011;786;48.718;9.514;2022-12-29T12:28:45;8.57;;;7.47;;
1585;SDS011;786;48.718;9.514;2022-12-29T12:31:18;10.57;;;7.72;;
1585;SDS011;786;48.718;9.514;2022-12-29T12:33:55;8.35;;;5.72;;
1585;SDS011;786;48.718;9.514;2022-12-29T12:36:42;8.40;;;7.60;;
1585;SDS011;786;48.718;9.514;2022-12-29T12:39:22;6.93;;;6.22;;
1585;SDS011;786;48.718;9.514;2022-12-29T12:41:56;9.30;;;7.18;;
1585;SDS011;786;48.718;9.514;2022-12-29T12:44:32;7.75;;;6.88;;
1585;SDS011;786;48.718;9.514;2022-12-29T12:52:46;6.07;;;5.28;;
1585;SDS011;786;48.718;9.514;2022-12-29T12:55:36;5.80;;;5.18;;
1585;SDS011;786;48.718;9.514;2022-12-29T12:58:11;5.40;;;4.90;;
1585;SDS011;786;48.718;9.514;2022-12-29T13:00:47;5.47;;;4.97;;
1585;SDS011;786;48.718;9.514;2022-12-29T13:03:22;5.85;;;5.38;;
1585;SDS011;786;48.718;9.514;2022-12-29T13:05:59;7.63;;;6.93;;
1585;SDS011;786;48.718;9.514;2022-12-29T13:08:36;5.80;;;5.30;;
1585;SDS011;786;48.718;9.514;2022-12-29T13:11:11;5.80;;;5.30;;
1585;SDS011;786;48.718;9.514;2022-12-29T13:13:51;6.43;;;5.88;;
1585;SDS011;786;48.718;9.514;2022-12-29T13:16:27;6.75;;;5.97;;
1585;SDS011;786;48.718;9.514;2022-12-29T13:18:58;6.38;;;5.78;;
1585;SDS011;786;48.718;9.514;2022-12-29T13:21:29;5.18;;;4.78;;
1585;SDS011;786;48.718;9.514;2022-12-29T13:24:01;6.78;;;6.13;;
1585;SDS011;786;48.718;9.514;2022-12-29T13:26:30;8.05;;;6.28;;
1585;SDS011;786;48.718;9.514;2022-12-29T13:29:03;6.00;;;5.50;;
1585;SDS011;786;48.718;9.514;2022-12-29T13:31:33;5.82;;;5.32;;
1585;SDS011;786;48.718;9.514;2022-12-29T13:34:05;7.20;;;6.55;;
1585;SDS011;786;48.718;9.514;2022-12-29T13:36:41;4.45;;;4.05;;
1585;SDS011;786;48.718;9.514;2022-12-29T13:39:10;6.22;;;5.63;;
1585;SDS011;786;48.718;9.514;2022-12-29T13:41:39;5.78;;;4.93;;
1585;SDS011;786;48.718;9.514;2022-12-29T13:44:11;4.80;;;4.38;;
1585;SDS011;786;48.718;9.514;2022-12-29T13:46:42;6.30;;;5.70;;
1585;SDS011;786;48.718;9.514;2022-12-29T13:49:12;5.78;;;5.25;;
1585;SDS011;786;48.718;9.514;2022-12-29T13:51:40;6.82;;;6.22;;
1585;SDS011;786;48.718;9.514;2022-12-29T13:54:14;6.40;;;5.82;;
1585;SDS011;786;48.718;9.514;2022-12-29T13:56:49;6.82;;;6.25;;
1585;SDS011;786;48.718;9.514;2022-12-29T13:59:20;5.97;;;5.38;;
1585;SDS011;786;48.718;9.514;2022-12-29T14:01:53;5.88;;;4.90;;
1585;SDS011;786;48.718;9.514;2022-12-29T14:04:23;5.32;;;4.82;;
1585;SDS011;786;48.718;9.514;2022-12-29T14:07:00;6.78;;;6.18;;
1585;SDS011;786;48.718;9.514;2022-12-29T14:12:22;5.65;;;5.00;;
1585;SDS011;786;48.718;9.514;2022-12-29T14:14:55;7.20;;;6.50;;
1585;SDS011;786;48.718;9.514;2022-12-29T14:17:29;5.50;;;4.85;;
1585;SDS011;786;48.718;9.514;2022-12-29T14:19:55;6.43;;;5.82;;
1585;SDS011;786;48.718;9.514;2022-12-29T14:22:25;5.38;;;4.88;;
1585;SDS011;786;48.718;9.514;2022-12-29T14:24:52;5.53;;;5.05;;
1585;SDS011;786;48.718;9.514;2022-12-29T14:33:13;5.68;;;5.18;;
1585;SDS011;786;48.718;9.514;2022-12-29T14:35:41;4.57;;;4.18;;
1585;SDS011;786;48.718;9.514;2022-12-29T14:38:14;5.15;;;4.65;;
1585;SDS011;786;48.718;9.514;2022-12-29T14:40:42;5.47;;;4.05;;
1585;SDS011;786;48.718;9.514;2022-12-29T14:43:11;6.40;;;5.80;;
1585;SDS011;786;48.718;9.514;2022-12-29T14:45:39;4.88;;;4.22;;
1585;SDS011;786;48.718;9.514;2022-12-29T14:48:21;6.03;;;5.43;;
1585;SDS011;786;48.718;9.514;2022-12-29T14:50:53;4.90;;;4.47;;
1585;SDS011;786;48.718;9.514;2022-12-29T14:56:09;6.63;;;5.13;;
1585;SDS011;786;48.718;9.514;2022-12-29T14:58:38;5.28;;;4.75;;
1585;SDS011;786;48.718;9.514;2022-12-29T15:01:20;5.50;;;5.00;;
1585;SDS011;786;48.718;9.514;2022-12-29T15:03:53;5.25;;;4.72;;
1585;SDS011;786;48.718;9.514;2022-12-29T15:06:23;6.93;;;6.22;;
1585;SDS011;786;48.718;9.514;2022-12-29T15:08:52;4.95;;;4.45;;
1585;SDS011;786;48.718;9.514;2022-12-29T15:11:22;6.03;;;5.43;;
1585;SDS011;786;48.718;9.514;2022-12-29T15:13:49;6.30;;;5.70;;
1585;SDS011;786;48.718;9.514;2022-12-29T15:16:22;6.20;;;5.60;;
1585;SDS011;786;48.718;9.514;2022-12-29T15:18:50;5.55;;;5.00;;
1585;SDS011;786;48.718;9.514;2022-12-29T15:21:18;6.68;;;5.97;;
1585;SDS011;786;48.718;9.514;2022-12-29T15:23:47;6.03;;;5.47;;
1585;SDS011;786;48.718;9.514;2022-12-29T15:26:14;7.13;;;6.30;;
1585;SDS011;786;48.718;9.514;2022-12-29T15:28:46;7.13;;;6.10;;
1585;SDS011;786;48.718;9.514;2022-12-29T15:31:14;6.38;;;5.18;;
1585;SDS011;786;48.718;9.514;2022-12-29T15:33:41;7.10;;;5.38;;
1585;SDS011;786;48.718;9.514;2022-12-29T15:36:10;6.57;;;5.28;;
1585;SDS011;786;48.718;9.514;2022-12-29T15:38:39;5.90;;;5.22;;
1585;SDS011;786;48.718;9.514;2022-12-29T15:41:06;6.88;;;6.25;;
1585;SDS011;786;48.718;9.514;2022-12-29T15:43:45;5.20;;;4.38;;
1585;SDS011;786;48.718;9.514;2022-12-29T15:46:16;7.13;;;6.43;;
1585;SDS011;786;48.718;9.514;2022-12-29T15:48:43;7.80;;;5.95;;
1585;SDS011;786;48.718;9.514;2022-12-29T15:51:12;6.82;;;6.13;;
1585;SDS011;786;48.718;9.514;2022-12-29T15:53:45;7.85;;;7.05;;
1585;SDS011;786;48.718;9.514;2022-12-29T15:56:13;9.07;;;7.40;;
1585;SDS011;786;48.718;9.514;2022-12-29T15:58:40;9.00;;;5.95;;
1585;SDS011;786;48.718;9.514;2022-12-29T16:01:15;6.35;;;5.72;;
1585;SDS011;786;48.718;9.514;2022-12-29T16:03:43;7.18;;;6.10;;
1585;SDS011;786;48.718;9.514;2022-12-29T16:06:24;7.13;;;6.47;;